Time;durP1;ratioP1;P1;durP2;ratioP2;P2;SDS_P1;SDS_P2;PMS_P1;PMS_P2;Temp;Humidity;BMP_temperature;BMP_pressure;BME280_temperature;BME280_humidity;BME280_pressure;Samples;Min_cycle;Max_cycle;Signal;HPM_P1;HPM_P2
2021/10/12 00:01:54;;;;;;;24.30;16.82;;;;;;;7.07;63.09;100668.46;1670930;84;21004;-58
2021/10/12 00:04:20;;;;;;;23.83;15.50;;;;;;;7.05;63.17;100668.55;1668968;84;21752;-57
2021/10/12 00:06:47;;;;;;;23.10;15.78;;;;;;;7.05;63.27;100668.55;1681497;84;21106;-58
2021/10/12 00:09:13;;;;;;;24.82;15.93;;;;;;;7.10;63.26;100672.20;1658286;84;21064;-57
2021/10/12 00:11:41;;;;;;;24.27;15.93;;;;;;;7.17;63.20;100666.12;1674473;84;21569;-57
2021/10/12 00:14:08;;;;;;;22.85;14.63;;;;;;;7.21;63.12;100654.08;1674618;84;21040;-57
2021/10/12 00:16:34;;;;;;;25.77;16.90;;;;;;;7.23;63.19;100660.05;1647066;84;21577;-57
2021/10/12 00:19:01;;;;;;;25.92;16.40;;;;;;;7.23;63.52;100659.22;1669127;84;21040;-58
2021/10/12 00:21:27;;;;;;;26.80;18.10;;;;;;;7.24;63.52;100654.34;1679070;84;21078;-58
2021/10/12 00:23:55;;;;;;;23.10;15.75;;;;;;;7.22;63.63;100653.13;1676073;84;21048;-58
2021/10/12 00:26:21;;;;;;;25.32;16.15;;;;;;;7.21;63.49;100647.98;1659957;84;21847;-58
2021/10/12 00:28:48;;;;;;;23.02;16.07;;;;;;;7.21;63.22;100652.77;1665893;82;21049;-57
2021/10/12 00:31:15;;;;;;;27.50;16.85;;;;;;;7.17;63.26;100642.09;1676928;84;21293;-58
2021/10/12 00:33:42;;;;;;;25.75;16.40;;;;;;;7.18;63.23;100645.58;1672384;84;22002;-58
2021/10/12 00:36:10;;;;;;;25.15;16.65;;;;;;;7.16;63.16;100637.81;1655513;84;21124;-59
2021/10/12 00:38:37;;;;;;;26.05;16.70;;;;;;;7.10;63.15;100632.95;1666870;83;21101;-59
2021/10/12 00:41:08;;;;;;;26.82;17.73;;;;;;;7.05;63.36;100637.63;1669089;84;22333;-59
2021/10/12 00:43:35;;;;;;;26.45;17.48;;;;;;;6.99;63.35;100641.92;1663852;84;21966;-59
2021/10/12 00:46:02;;;;;;;25.72;16.87;;;;;;;6.94;63.34;100641.36;1673371;84;21104;-59
2021/10/12 00:48:29;;;;;;;23.87;15.80;;;;;;;6.90;63.51;100641.19;1668888;84;22390;-58
2021/10/12 00:50:55;;;;;;;27.10;16.17;;;;;;;6.95;63.30;100637.82;1667134;84;21097;-59
2021/10/12 00:53:21;;;;;;;23.98;16.05;;;;;;;6.99;63.10;100631.45;1673320;84;21096;-59
2021/10/12 00:55:48;;;;;;;23.67;17.20;;;;;;;7.00;63.20;100634.45;1687060;82;21549;-59
2021/10/12 00:58:15;;;;;;;34.92;18.20;;;;;;;6.98;63.32;100623.25;1664453;83;21041;-59
2021/10/12 01:03:06;;;;;;;27.75;17.82;;;;;;;6.94;63.35;100621.27;1796894;77;22745;-58
2021/10/12 01:05:34;;;;;;;29.45;19.02;;;;;;;6.85;63.75;100632.30;1776720;78;21030;-57
2021/10/12 01:08:01;;;;;;;26.07;17.15;;;;;;;6.81;63.90;100618.56;1741547;79;21143;-57
2021/10/12 01:10:28;;;;;;;27.48;19.17;;;;;;;6.81;63.90;100619.05;1768210;78;20999;-58
2021/10/12 01:12:54;;;;;;;25.92;18.23;;;;;;;6.79;63.70;100616.52;1779823;78;21051;-58
2021/10/12 01:15:21;;;;;;;32.90;19.02;;;;;;;6.75;63.55;100616.31;1773962;78;21527;-58
2021/10/12 01:17:48;;;;;;;28.12;19.55;;;;;;;6.68;63.70;100608.47;1742356;80;21555;-58
2021/10/12 01:20:15;;;;;;;29.20;20.65;;;;;;;6.65;63.91;100607.34;1711058;80;21064;-58
2021/10/12 01:22:44;;;;;;;31.65;18.35;;;;;;;6.60;64.06;100608.09;1765598;78;21137;-58
2021/10/12 01:25:12;;;;;;;34.30;18.07;;;;;;;6.61;64.32;100609.78;1772085;78;20978;-58
2021/10/12 01:27:38;;;;;;;27.37;18.48;;;;;;;6.69;64.18;100608.38;1744738;79;21034;-59
2021/10/12 01:30:06;;;;;;;27.37;18.02;;;;;;;6.79;63.97;100603.44;1742116;80;21047;-58
2021/10/12 01:32:39;;;;;;;27.15;18.50;;;;;;;6.86;63.80;100603.91;1749228;78;21079;-58
2021/10/12 01:35:07;;;;;;;28.55;18.25;;;;;;;6.88;63.65;100603.34;1707661;81;21124;-57
2021/10/12 01:37:33;;;;;;;26.68;18.00;;;;;;;6.87;63.50;100606.41;1714964;82;21078;-58
2021/10/12 01:40:00;;;;;;;28.70;18.77;;;;;;;6.84;63.38;100600.52;1714176;81;21047;-58
2021/10/12 01:42:26;;;;;;;26.52;18.52;;;;;;;6.79;63.50;100603.44;1715248;81;22324;-58
2021/10/12 01:44:53;;;;;;;29.72;20.88;;;;;;;6.75;63.54;100599.31;1718733;81;21110;-58
2021/10/12 01:47:20;;;;;;;32.55;19.12;;;;;;;6.70;63.62;100597.45;1718860;81;21106;-59
2021/10/12 01:49:47;;;;;;;30.77;19.77;;;;;;;6.67;63.65;100594.56;1715041;81;21078;-58
2021/10/12 01:52:14;;;;;;;28.25;18.82;;;;;;;6.64;63.67;100595.19;1714415;81;21685;-58
2021/10/12 01:54:40;;;;;;;31.95;19.10;;;;;;;6.62;63.77;100595.76;1712948;81;21674;-57
2021/10/12 01:57:06;;;;;;;32.08;20.65;;;;;;;6.62;63.75;100597.92;1716563;81;21878;-57
2021/10/12 01:59:33;;;;;;;32.13;20.82;;;;;;;6.63;63.78;100593.53;1713474;81;21030;-59
2021/10/12 02:02:01;;;;;;;32.33;19.80;;;;;;;6.60;63.82;100588.48;1683548;81;21084;-58
2021/10/12 02:04:29;;;;;;;32.15;20.05;;;;;;;6.61;63.78;100587.08;1699986;82;21129;-57
2021/10/12 02:06:55;;;;;;;30.20;19.40;;;;;;;6.69;63.67;100587.46;1741816;79;21057;-58
2021/10/12 02:09:22;;;;;;;33.33;22.15;;;;;;;6.75;63.56;100580.17;1769038;79;21155;-58
2021/10/12 02:11:48;;;;;;;31.12;21.07;;;;;;;6.77;63.57;100570.45;1773062;79;21023;-58
2021/10/12 02:14:15;;;;;;;32.53;21.62;;;;;;;6.76;63.66;100570.93;1735997;80;21042;-58
2021/10/12 02:16:41;;;;;;;31.12;21.70;;;;;;;6.73;63.70;100569.80;1769726;79;21770;-58
2021/10/12 02:19:07;;;;;;;35.17;22.10;;;;;;;6.70;63.76;100566.89;1764181;78;21098;-58
2021/10/12 02:21:34;;;;;;;33.80;22.45;;;;;;;6.68;63.70;100562.23;1764417;79;21912;-58
2021/10/12 02:24:00;;;;;;;35.50;21.05;;;;;;;6.64;63.75;100563.81;1764743;79;21085;-58
2021/10/12 02:26:27;;;;;;;32.42;23.15;;;;;;;6.58;64.00;100562.89;1744712;80;21086;-58
2021/10/12 02:28:53;;;;;;;32.55;22.30;;;;;;;6.54;64.20;100565.30;1770995;78;21069;-58
2021/10/12 02:31:20;;;;;;;38.65;21.80;;;;;;;6.49;64.23;100559.90;1768882;79;21077;-58
2021/10/12 02:33:46;;;;;;;34.80;22.40;;;;;;;6.46;64.47;100558.77;1741766;79;22719;-58
2021/10/12 02:36:12;;;;;;;37.23;22.40;;;;;;;6.47;64.61;100552.63;1767030;79;21085;-58
2021/10/12 02:38:40;;;;;;;31.97;21.52;;;;;;;6.54;64.50;100552.23;1766977;78;21039;-58
2021/10/12 02:41:07;;;;;;;33.65;21.37;;;;;;;6.67;64.21;100552.73;1767227;78;21093;-58
2021/10/12 02:43:34;;;;;;;33.42;20.95;;;;;;;6.78;63.98;100548.61;1768853;78;21042;-58
2021/10/12 02:46:00;;;;;;;28.50;20.80;;;;;;;6.83;63.84;100552.61;1761268;78;21208;-58
2021/10/12 02:48:27;;;;;;;35.92;23.18;;;;;;;6.84;63.93;100552.14;1740190;80;21018;-58
2021/10/12 02:50:54;;;;;;;29.00;21.23;;;;;;;6.83;63.91;100539.53;1770497;78;21527;-58
2021/10/12 02:53:20;;;;;;;34.10;21.37;;;;;;;6.81;63.93;100536.18;1766538;78;21583;-56
2021/10/12 02:55:46;;;;;;;32.13;21.87;;;;;;;6.80;64.05;100533.66;1776348;78;21069;-58
2021/10/12 02:58:13;;;;;;;29.50;20.95;;;;;;;6.78;64.11;100531.13;1766643;78;21120;-58
2021/10/12 03:00:39;;;;;;;29.70;21.07;;;;;;;6.77;64.08;100535.14;1766042;79;21519;-57
2021/10/12 03:03:09;;;;;;;36.10;23.00;;;;;;;6.75;64.05;100535.23;1757375;78;21103;-57
2021/10/12 03:05:37;;;;;;;32.75;22.40;;;;;;;6.73;64.02;100529.27;1754747;79;21019;-58
2021/10/12 03:08:04;;;;;;;28.45;21.17;;;;;;;6.70;63.94;100526.36;1741210;80;21666;-57
2021/10/12 03:10:31;;;;;;;35.90;21.80;;;;;;;6.68;63.79;100526.93;1755331;79;22005;-58
2021/10/12 03:12:57;;;;;;;32.38;21.45;;;;;;;6.60;63.85;100520.02;1754610;79;21039;-57
2021/10/12 03:15:24;;;;;;;30.70;20.23;;;;;;;6.61;63.80;100518.27;1754366;79;21141;-58
2021/10/12 03:17:51;;;;;;;32.85;20.92;;;;;;;6.67;63.68;100517.42;1755008;79;21011;-57
2021/10/12 03:20:19;;;;;;;32.78;22.25;;;;;;;6.76;63.90;100519.07;1754138;79;21060;-57
2021/10/12 03:22:45;;;;;;;31.85;21.87;;;;;;;6.81;63.92;100512.64;1743480;80;21858;-58
2021/10/12 03:25:11;;;;;;;29.87;20.88;;;;;;;6.83;63.93;100514.69;1740577;80;21095;-58
2021/10/12 03:27:37;;;;;;;34.75;22.73;;;;;;;6.80;64.03;100519.27;1746398;80;21548;-58
2021/10/12 03:30:06;;;;;;;37.63;24.52;;;;;;;6.78;63.90;100521.98;1751547;80;21540;-58
2021/10/12 03:32:32;;;;;;;36.00;22.73;;;;;;;6.76;63.84;100518.63;1750363;79;21089;-58
2021/10/12 03:34:58;;;;;;;35.35;23.22;;;;;;;6.72;63.69;100521.04;1751278;79;21505;-58
2021/10/12 03:37:24;;;;;;;38.58;24.25;;;;;;;6.67;63.57;100513.95;1755345;80;21075;-58
2021/10/12 03:39:51;;;;;;;36.08;23.47;;;;;;;6.59;63.56;100514.44;1755088;79;21047;-58
2021/10/12 03:42:17;;;;;;;37.73;24.25;;;;;;;6.55;63.70;100508.17;1755825;80;21048;-59
2021/10/12 03:44:45;;;;;;;36.42;22.90;;;;;;;6.51;63.79;100502.30;1756494;79;21052;-59
2021/10/12 03:47:11;;;;;;;36.98;23.05;;;;;;;6.46;63.77;100499.95;1754526;80;21502;-59
2021/10/12 03:49:37;;;;;;;32.45;23.50;;;;;;;6.45;63.80;100500.05;1733853;80;21031;-58
2021/10/12 03:52:04;;;;;;;39.88;23.98;;;;;;;6.40;63.86;100494.27;1754574;79;21485;-59
2021/10/12 03:54:31;;;;;;;36.13;23.32;;;;;;;6.38;63.97;100492.22;1748811;79;21044;-59
2021/10/12 03:56:57;;;;;;;34.88;22.70;;;;;;;6.39;64.07;100493.44;1752759;80;21550;-59
2021/10/12 03:59:25;;;;;;;38.65;24.57;;;;;;;6.48;63.98;100488.94;1736909;80;21256;-59
2021/10/12 04:01:51;;;;;;;38.65;25.57;;;;;;;6.56;64.08;100491.56;1732659;80;21008;-59
2021/10/12 04:04:18;;;;;;;36.13;24.92;;;;;;;6.65;64.03;100484.45;1763965;79;22125;-59
2021/10/12 04:06:44;;;;;;;41.05;26.93;;;;;;;6.70;64.13;100488.45;1761383;79;21038;-59
2021/10/12 04:09:10;;;;;;;36.25;25.12;;;;;;;6.69;64.26;100484.17;1756362;79;21030;-59
2021/10/12 04:11:37;;;;;;;34.05;24.47;;;;;;;6.67;64.32;100477.34;1736414;80;21113;-58
2021/10/12 04:14:04;;;;;;;39.88;26.48;;;;;;;6.67;64.35;100479.51;1762467;79;21043;-57
2021/10/12 04:16:32;;;;;;;39.20;26.73;;;;;;;6.65;64.38;100473.51;1762210;79;21039;-57
2021/10/12 04:18:58;;;;;;;42.98;27.80;;;;;;;6.64;64.18;100470.98;1732933;79;21039;-58
2021/10/12 04:21:25;;;;;;;42.85;29.55;;;;;;;6.57;64.19;100469.22;1760168;79;21034;-58
2021/10/12 04:23:51;;;;;;;45.43;28.65;;;;;;;6.52;64.26;100466.05;1729791;79;21208;-57
2021/10/12 04:26:19;;;;;;;47.10;27.87;;;;;;;6.51;64.38;100470.45;1768165;79;21034;-59
2021/10/12 04:28:45;;;;;;;40.83;27.60;;;;;;;6.47;64.58;100475.51;1768408;79;21600;-57
2021/10/12 04:31:12;;;;;;;47.67;29.55;;;;;;;6.41;64.90;100466.73;1769983;79;21045;-57
2021/10/12 04:33:38;;;;;;;41.23;29.05;;;;;;;6.42;64.98;100471.03;1732813;79;21117;-58
2021/10/12 04:36:05;;;;;;;44.95;31.07;;;;;;;6.54;64.91;100475.97;1733092;79;21086;-58
2021/10/12 04:38:31;;;;;;;41.77;28.90;;;;;;;6.60;64.87;100472.95;1764036;79;21077;-57
2021/10/12 04:40:57;;;;;;;40.70;29.18;;;;;;;6.65;64.86;100470.06;1760087;79;21089;-57
2021/10/12 04:43:24;;;;;;;41.65;27.85;;;;;;;6.69;65.00;100463.70;1764339;79;21055;-58
2021/10/12 04:45:50;;;;;;;36.98;26.75;;;;;;;6.73;65.11;100466.50;1760321;79;21749;-57
2021/10/12 04:48:17;;;;;;;44.27;27.77;;;;;;;6.73;65.12;100465.20;1761837;79;21118;-58
2021/10/12 04:50:43;;;;;;;41.75;27.82;;;;;;;6.76;65.14;100458.92;1763465;79;22280;-58
2021/10/12 04:53:09;;;;;;;42.53;27.22;;;;;;;6.77;65.04;100460.61;1751769;79;21064;-58
2021/10/12 04:55:40;;;;;;;39.55;26.87;;;;;;;6.74;64.98;100462.11;1761582;79;21595;-58
2021/10/12 04:58:04;;;;;;;43.13;26.45;;;;;;;6.72;64.95;100463.51;1767042;79;21332;-58
2021/10/12 05:00:31;;;;;;;39.08;27.98;;;;;;;6.68;65.10;100469.88;1764283;79;21122;-58
2021/10/12 05:02:57;;;;;;;48.23;29.25;;;;;;;6.68;65.21;100469.88;1741396;79;21125;-57
2021/10/12 05:05:24;;;;;;;49.40;29.35;;;;;;;6.70;65.25;100464.08;1766126;79;21078;-57
2021/10/12 05:07:51;;;;;;;40.05;25.60;;;;;;;6.69;65.16;100459.33;1771568;79;21461;-58
2021/10/12 05:10:17;;;;;;;40.12;25.08;;;;;;;6.73;65.16;100459.97;1741897;78;21098;-58
2021/10/12 05:12:46;;;;;;;38.33;25.15;;;;;;;6.81;65.10;100460.33;1771434;78;21136;-58
2021/10/12 05:15:20;;;;;;;41.08;26.27;;;;;;;6.94;65.06;100459.55;1770212;78;21015;-58
2021/10/12 05:17:46;;;;;;;34.63;26.00;;;;;;;7.04;64.86;100458.02;1764881;79;21078;-57
2021/10/12 05:20:10;;;;;;;44.67;27.73;;;;;;;7.13;64.66;100457.89;1756128;78;21008;-58
2021/10/12 05:22:38;;;;;;;43.20;26.93;;;;;;;7.16;64.75;100459.00;1772392;79;21011;-58
2021/10/12 05:25:05;;;;;;;45.50;29.35;;;;;;;7.20;64.67;100459.19;1748191;79;21535;-58
2021/10/12 05:27:33;;;;;;;44.67;27.30;;;;;;;7.21;64.69;100449.94;1770903;79;21027;-59
2021/10/12 05:30:00;;;;;;;40.80;28.60;;;;;;;7.26;64.52;100453.54;1734399;80;21019;-58
2021/10/12 05:32:26;;;;;;;43.48;26.87;;;;;;;7.28;64.35;100452.13;1709366;80;21141;-59
2021/10/12 05:34:52;;;;;;;40.92;26.20;;;;;;;7.28;64.39;100456.06;1737464;79;21042;-58
2021/10/12 05:37:20;;;;;;;37.48;26.10;;;;;;;7.30;64.44;100454.20;1746211;80;21323;-57
2021/10/12 05:39:46;;;;;;;38.05;26.40;;;;;;;7.34;64.45;100460.91;1761335;79;21062;-57
2021/10/12 05:42:12;;;;;;;39.63;27.58;;;;;;;7.34;64.46;100447.81;1775740;78;21078;-57
2021/10/12 05:44:39;;;;;;;37.70;25.90;;;;;;;7.37;64.51;100444.52;1763929;79;21356;-57
2021/10/12 05:47:06;;;;;;;37.50;25.75;;;;;;;7.44;64.53;100439.72;1766423;78;21082;-58
2021/10/12 05:49:33;;;;;;;38.25;24.82;;;;;;;7.57;64.42;100439.77;1760287;79;21149;-57
2021/10/12 05:52:01;;;;;;;44.18;25.72;;;;;;;7.68;64.44;100437.72;1764438;78;20999;-58
2021/10/12 05:54:30;;;;;;;36.25;23.35;;;;;;;7.81;64.61;100438.58;1762957;78;21515;-58
2021/10/12 05:56:58;;;;;;;36.50;23.73;;;;;;;7.92;64.85;100433.45;1766382;78;21693;-57
2021/10/12 05:59:24;;;;;;;37.93;24.90;;;;;;;8.01;64.95;100439.84;1774533;78;21118;-57
2021/10/12 06:01:50;;;;;;;35.90;22.67;;;;;;;8.09;64.84;100444.09;1736082;80;22033;-57
2021/10/12 06:04:16;;;;;;;37.20;22.50;;;;;;;8.19;64.69;100446.92;1746937;80;21090;-57
2021/10/12 06:06:43;;;;;;;34.03;22.10;;;;;;;8.25;64.62;100445.65;1767439;78;21046;-57
2021/10/12 06:09:10;;;;;;;37.73;23.10;;;;;;;8.30;64.70;100448.31;1768324;78;21067;-57
2021/10/12 06:11:36;;;;;;;41.35;26.52;;;;;;;8.35;64.70;100440.98;1740693;79;21015;-57
2021/10/12 06:14:03;;;;;;;37.53;25.80;;;;;;;8.42;64.70;100442.68;1745395;80;22305;-58
2021/10/12 06:16:29;;;;;;;38.50;24.70;;;;;;;8.48;64.66;100437.05;1777408;78;20963;-56
2021/10/12 06:18:55;;;;;;;33.95;21.55;;;;;;;8.61;64.56;100445.34;1741266;79;21003;-57
2021/10/12 06:21:22;;;;;;;30.25;19.92;;;;;;;8.78;64.24;100442.86;1772500;78;21487;-57
2021/10/12 06:23:48;;;;;;;40.38;22.25;;;;;;;8.94;64.09;100436.85;1744004;79;20954;-58
2021/10/12 06:26:15;;;;;;;38.00;22.10;;;;;;;9.10;63.89;100441.36;1704151;82;21116;-58
2021/10/12 06:28:41;;;;;;;33.42;21.93;;;;;;;9.23;63.80;100444.39;1765589;79;21035;-58
2021/10/12 06:31:07;;;;;;;32.15;21.52;;;;;;;9.33;63.49;100442.79;1771064;78;21031;-58
2021/10/12 06:33:34;;;;;;;33.80;21.52;;;;;;;9.42;63.27;100440.78;1773338;79;21976;-58
2021/10/12 06:36:00;;;;;;;29.80;20.97;;;;;;;9.53;63.11;100443.08;1770671;78;21010;-58
2021/10/12 06:38:27;;;;;;;30.95;22.40;;;;;;;9.62;62.98;100442.41;1772442;79;23322;-58
2021/10/12 06:40:53;;;;;;;33.67;22.30;;;;;;;9.71;62.77;100444.33;1769565;78;21642;-57
2021/10/12 06:43:20;;;;;;;31.42;21.77;;;;;;;9.76;62.68;100438.24;1769312;79;21003;-57
2021/10/12 06:45:47;;;;;;;31.62;19.98;;;;;;;9.83;62.66;100440.79;1772747;79;21024;-57
2021/10/12 06:48:13;;;;;;;29.67;19.73;;;;;;;9.91;62.42;100428.84;1771305;78;21039;-57
2021/10/12 06:50:39;;;;;;;33.70;20.95;;;;;;;10.03;62.09;100427.41;1770925;79;21145;-57
2021/10/12 06:53:06;;;;;;;31.73;20.20;;;;;;;10.15;62.06;100422.98;1766604;79;21086;-57
2021/10/12 06:55:34;;;;;;;26.85;20.05;;;;;;;10.23;62.17;100426.34;1765878;78;21125;-57
2021/10/12 06:58:01;;;;;;;28.20;19.95;;;;;;;10.31;62.30;100417.39;1766234;79;21066;-58
2021/10/12 07:00:27;;;;;;;29.07;19.60;;;;;;;10.40;62.21;100415.84;1713771;82;21062;-58
2021/10/12 07:02:54;;;;;;;32.42;21.00;;;;;;;10.50;62.16;100423.37;1734036;80;21099;-58
2021/10/12 07:05:20;;;;;;;35.17;19.77;;;;;;;10.57;61.97;100415.38;1715882;82;21947;-58
2021/10/12 07:07:46;;;;;;;30.75;19.12;;;;;;;10.67;61.82;100419.40;1716532;82;21067;-58
2021/10/12 07:10:14;;;;;;;29.30;19.52;;;;;;;10.74;61.45;100423.23;1746043;81;21052;-58
2021/10/12 07:12:40;;;;;;;32.05;19.77;;;;;;;10.81;61.35;100418.77;1745158;80;21116;-58
2021/10/12 07:15:08;;;;;;;28.83;19.40;;;;;;;10.84;60.76;100416.72;1745498;80;21164;-58
2021/10/12 07:17:36;;;;;;;32.88;19.32;;;;;;;10.88;60.12;100415.53;1742188;81;21541;-58
2021/10/12 07:20:03;;;;;;;29.80;18.02;;;;;;;10.91;59.83;100410.02;1744900;81;21100;-58
2021/10/12 07:22:29;;;;;;;31.05;19.55;;;;;;;10.95;59.81;100406.66;1712877;81;21537;-58
2021/10/12 07:24:56;;;;;;;24.27;18.00;;;;;;;11.03;59.66;100409.51;1747544;80;21062;-58
2021/10/12 07:27:22;;;;;;;27.73;17.27;;;;;;;11.20;59.36;100408.12;1702288;80;21833;-58
2021/10/12 07:29:51;;;;;;;28.35;17.92;;;;;;;11.34;59.02;100399.89;1750336;81;21086;-59
2021/10/12 07:32:18;;;;;;;31.07;18.32;;;;;;;11.47;59.15;100401.53;1745553;80;21052;-59
2021/10/12 07:34:44;;;;;;;29.82;19.75;;;;;;;11.57;58.75;100399.80;1752298;80;21098;-59
2021/10/12 07:37:11;;;;;;;39.33;18.95;;;;;;;11.64;58.67;100405.38;1742842;80;21056;-59
2021/10/12 07:39:41;;;;;;;28.00;19.67;;;;;;;11.69;58.73;100401.38;1718869;81;21830;-58
2021/10/12 07:42:06;;;;;;;27.25;19.75;;;;;;;11.75;58.65;100405.33;1744836;80;21064;-58
2021/10/12 07:44:32;;;;;;;27.55;18.98;;;;;;;11.81;58.27;100396.05;1745515;80;20979;-58
2021/10/12 07:46:59;;;;;;;29.55;20.10;;;;;;;11.83;58.31;100392.79;1742054;80;22200;-58
2021/10/12 07:49:25;;;;;;;28.75;19.45;;;;;;;11.87;58.44;100392.90;1717259;82;21040;-58
2021/10/12 07:51:52;;;;;;;28.85;19.45;;;;;;;11.93;58.25;100395.02;1744614;80;21149;-58
2021/10/12 07:54:25;;;;;;;27.32;18.40;;;;;;;11.97;57.80;100385.04;1738989;80;21660;-58
2021/10/12 07:56:48;;;;;;;26.60;18.60;;;;;;;11.95;57.48;100381.22;1743669;80;21131;-58
2021/10/12 07:59:14;;;;;;;26.50;17.92;;;;;;;11.95;57.52;100384.34;1716776;81;21042;-58
2021/10/12 08:01:41;;;;;;;27.75;19.17;;;;;;;11.94;57.56;100384.84;1745586;81;21036;-58
2021/10/12 08:04:07;;;;;;;27.62;18.55;;;;;;;11.95;57.40;100375.94;1752089;80;22025;-57
2021/10/12 08:06:34;;;;;;;23.90;17.12;;;;;;;11.95;57.30;100380.39;1764679;80;21028;-57
2021/10/12 08:09:01;;;;;;;25.50;16.95;;;;;;;12.02;57.26;100378.42;1751510;79;21039;-58
2021/10/12 08:11:28;;;;;;;23.65;17.27;;;;;;;12.17;57.03;100370.98;1752323;79;21122;-57
2021/10/12 08:13:59;;;;;;;27.87;17.48;;;;;;;12.29;56.42;100362.48;1749178;79;21086;-57
2021/10/12 08:16:32;;;;;;;28.40;20.68;;;;;;;12.38;56.65;100356.88;1756280;80;21082;-58
2021/10/12 08:19:05;;;;;;;30.95;18.87;;;;;;;12.48;56.54;100356.91;1757309;79;21506;-58
2021/10/12 08:21:31;;;;;;;28.73;18.90;;;;;;;12.58;56.24;100351.16;1765048;79;21082;-57
2021/10/12 08:23:59;;;;;;;31.20;18.30;;;;;;;12.70;55.60;100349.23;1751956;80;21054;-57
2021/10/12 08:26:28;;;;;;;25.50;17.32;;;;;;;12.76;55.29;100342.06;1701428;82;21020;-58
2021/10/12 08:28:59;;;;;;;24.57;17.75;;;;;;;12.83;55.18;100345.34;1752021;79;21110;-57
2021/10/12 08:31:24;;;;;;;25.82;16.10;;;;;;;12.87;55.02;100343.75;1751656;79;21043;-57
2021/10/12 08:33:50;;;;;;;27.10;16.90;;;;;;;12.91;54.83;100345.98;1763745;79;21389;-58
2021/10/12 08:36:17;;;;;;;25.80;17.30;;;;;;;12.95;54.83;100336.80;1746038;80;21107;-58
2021/10/12 08:38:43;;;;;;;23.00;16.55;;;;;;;12.99;54.70;100334.70;1704205;83;21036;-58
2021/10/12 08:41:10;;;;;;;25.50;15.65;;;;;;;13.08;54.57;100331.23;1761557;80;22335;-57
2021/10/12 08:43:38;;;;;;;24.45;15.93;;;;;;;13.18;54.21;100329.42;1759504;79;21024;-58
2021/10/12 08:46:05;;;;;;;24.23;14.98;;;;;;;13.26;53.59;100326.55;1758152;80;21133;-58
2021/10/12 08:48:33;;;;;;;24.15;14.65;;;;;;;13.32;52.70;100329.98;1741600;80;21059;-58
2021/10/12 08:51:01;;;;;;;23.02;14.90;;;;;;;13.37;52.51;100318.00;1760854;79;21070;-59
2021/10/12 08:53:29;;;;;;;24.37;14.33;;;;;;;13.45;52.26;100315.98;1734710;80;21077;-59
2021/10/12 08:55:57;;;;;;;22.55;13.55;;;;;;;13.55;51.72;100314.64;1744138;80;21086;-59
2021/10/12 08:58:25;;;;;;;17.52;12.93;;;;;;;13.64;51.60;100314.25;1760025;79;21090;-58
2021/10/12 09:01:09;;;;;;;17.77;12.88;;;;;;;13.75;51.63;100312.73;1758928;79;21035;-59
2021/10/12 09:06:30;;;;;;;24.37;14.90;;;;;;;13.90;51.11;100300.72;1776014;79;21095;-58
2021/10/12 09:09:05;;;;;;;17.52;12.07;;;;;;;13.99;50.87;100295.53;1770146;79;21425;-59
2021/10/12 09:11:34;;;;;;;26.57;12.88;;;;;;;14.05;50.92;100295.75;1767594;79;20994;-58
2021/10/12 09:14:07;;;;;;;19.10;11.80;;;;;;;14.12;50.94;100295.52;1774639;78;21081;-58
2021/10/12 09:16:37;;;;;;;19.40;11.88;;;;;;;14.24;50.93;100297.94;1765215;78;21043;-57
2021/10/12 09:19:09;;;;;;;18.57;12.85;;;;;;;14.33;50.73;100289.62;1779148;79;21118;-57
2021/10/12 09:21:44;;;;;;;18.62;12.00;;;;;;;14.41;50.44;100285.23;1769426;78;21029;-58
2021/10/12 09:24:16;;;;;;;22.30;12.43;;;;;;;14.48;50.34;100286.80;1714711;82;21531;-58
2021/10/12 09:26:49;;;;;;;20.72;11.48;;;;;;;14.56;50.11;100288.67;1709095;82;21547;-58
2021/10/12 09:29:33;;;;;;;18.00;11.73;;;;;;;14.63;50.07;100284.48;1718273;82;21064;-57
2021/10/12 09:31:56;;;;;;;17.30;12.43;;;;;;;14.72;50.34;100274.79;1716464;82;21166;-58
2021/10/12 09:34:23;;;;;;;18.32;11.53;;;;;;;14.81;50.06;100264.59;1713968;81;21149;-59
2021/10/12 09:36:53;;;;;;;15.98;10.98;;;;;;;14.93;49.57;100266.03;1708812;81;21165;-58
2021/10/12 09:39:42;;;;;;;17.27;10.93;;;;;;;15.01;49.02;100259.47;1688569;82;21102;-58
2021/10/12 09:42:17;;;;;;;16.80;10.90;;;;;;;15.12;49.04;100249.09;1710226;82;21061;-58
2021/10/12 09:44:57;;;;;;;18.75;11.12;;;;;;;15.21;48.62;100252.16;1686451;83;21219;-58
2021/10/12 09:47:25;;;;;;;17.20;10.70;;;;;;;15.30;48.00;100242.89;1686547;82;21098;-58
2021/10/12 09:50:13;;;;;;;17.30;10.80;;;;;;;15.39;47.65;100241.97;1678764;82;21039;-58
2021/10/12 09:52:46;;;;;;;17.52;10.68;;;;;;;15.49;46.54;100241.86;1709782;82;21086;-59
2021/10/12 09:55:12;;;;;;;17.37;11.35;;;;;;;15.56;46.76;100241.55;1715770;82;21063;-58
2021/10/12 09:57:40;;;;;;;18.57;11.57;;;;;;;15.65;46.95;100236.64;1678200;83;21188;-58
2021/10/12 10:00:09;;;;;;;16.30;10.43;;;;;;;15.75;46.15;100234.71;1692350;83;21015;-58
2021/10/12 10:02:42;;;;;;;21.15;12.13;;;;;;;15.83;46.34;100226.44;1707798;82;21935;-58
2021/10/12 10:05:08;;;;;;;17.70;11.85;;;;;;;15.88;46.21;100221.48;1726648;80;20908;-58
2021/10/12 10:07:42;;;;;;;18.50;11.50;;;;;;;15.92;46.28;100221.48;1773087;79;20914;-59
2021/10/12 10:10:10;;;;;;;16.83;10.47;;;;;;;15.98;46.09;100218.19;1761032;79;20975;-58
2021/10/12 10:12:38;;;;;;;17.23;11.15;;;;;;;16.01;46.16;100218.38;1765941;79;21003;-58
2021/10/12 10:15:06;;;;;;;17.90;10.55;;;;;;;16.02;46.05;100212.91;1758615;79;21066;-59
2021/10/12 10:17:32;;;;;;;16.67;11.20;;;;;;;16.06;45.89;100216.06;1758259;79;20984;-59
2021/10/12 10:20:01;;;;;;;19.57;11.12;;;;;;;16.13;46.04;100209.92;1765993;79;21140;-59
2021/10/12 10:22:50;;;;;;;20.77;10.80;;;;;;;16.16;45.71;100205.62;1712069;80;21085;-59
2021/10/12 10:25:34;;;;;;;19.02;11.25;;;;;;;16.23;45.81;100200.99;1767615;79;21611;-59
2021/10/12 10:28:24;;;;;;;19.37;11.22;;;;;;;16.25;46.11;100199.81;1760171;79;21600;-58
2021/10/12 10:30:58;;;;;;;16.00;11.00;;;;;;;16.27;45.89;100196.52;1770616;79;21300;-59
2021/10/12 10:33:36;;;;;;;18.32;10.38;;;;;;;16.26;45.87;100192.70;1770078;79;21163;-58
2021/10/12 10:36:06;;;;;;;20.48;11.80;;;;;;;16.22;45.94;100184.21;1737300;80;21074;-58
2021/10/12 10:38:36;;;;;;;15.78;9.65;;;;;;;16.25;46.50;100191.85;1770607;79;21027;-58
2021/10/12 10:41:11;;;;;;;17.35;11.05;;;;;;;16.28;46.66;100186.22;1739114;80;21100;-59
2021/10/12 10:43:54;;;;;;;23.62;11.18;;;;;;;16.33;46.71;100181.75;1758982;79;21042;-59
2021/10/12 10:46:36;;;;;;;18.20;11.30;;;;;;;16.35;46.75;100179.75;1767639;79;21078;-59
2021/10/12 10:49:16;;;;;;;15.85;10.70;;;;;;;16.39;46.53;100181.57;1775455;79;21560;-59
2021/10/12 10:52:09;;;;;;;19.12;10.72;;;;;;;16.43;46.43;100181.09;1761522;79;21568;-58
2021/10/12 10:54:49;;;;;;;19.77;13.22;;;;;;;16.45;46.14;100176.43;1765112;79;21042;-58
2021/10/12 10:57:21;;;;;;;16.82;11.45;;;;;;;16.50;46.17;100174.61;1760581;79;21035;-58
2021/10/12 11:00:19;;;;;;;15.40;10.08;;;;;;;16.49;45.88;100171.61;1763761;79;21399;-58
2021/10/12 11:02:47;;;;;;;16.40;11.88;;;;;;;16.47;46.11;100167.80;1762765;79;21171;-58
2021/10/12 11:05:41;;;;;;;14.98;10.15;;;;;;;16.48;46.04;100162.00;1695928;82;21043;-58
2021/10/12 11:08:20;;;;;;;14.28;9.28;;;;;;;16.43;46.41;100158.52;1759543;81;21047;-59
2021/10/12 11:10:54;;;;;;;15.03;10.00;;;;;;;16.39;46.48;100157.67;1754707;80;21030;-58
2021/10/12 11:13:33;;;;;;;19.40;10.32;;;;;;;16.36;46.26;100152.22;1758204;80;21082;-58
2021/10/12 11:16:01;;;;;;;19.12;9.65;;;;;;;16.33;46.29;100152.54;1756060;80;21199;-58
2021/10/12 11:18:28;;;;;;;13.70;8.70;;;;;;;16.30;45.23;100151.55;1753224;81;21095;-58
2021/10/12 11:20:57;;;;;;;17.07;8.48;;;;;;;16.24;45.31;100154.38;1756975;81;21071;-57
2021/10/12 11:23:29;;;;;;;20.72;9.65;;;;;;;16.18;45.11;100151.04;1756172;80;21012;-58
2021/10/12 11:26:08;;;;;;;15.65;8.18;;;;;;;16.12;44.78;100143.72;1753987;81;21115;-58